Terminal Aerodrome Forecast
Issued by NWS Greer, SC

Home | Current Version | Previous Version | Text Only | Print | Product List | Glossary On
Versions: 1 2 3 4 5 6 7 8 9 10 11 12 13 14 15 16
000
FTUS42 KGSP 052321
TAFGSP
TAF
KGSP 052321Z 0600/0624 33010G17KT P6SM VCSH SCT050 BKN080
     FM060300 32007KT P6SM BKN070
     FM061400 33012G21KT P6SM FEW070 SCT250=

USA.gov is the U.S. government's official web portal to all federal, state and local government web resources and services.